createdAt,value
2023-09-06T00:00:34.338Z,6.30
2023-09-06T00:03:05.205Z,6.45
2023-09-06T00:05:35.520Z,6.15
2023-09-06T00:08:07.935Z,7.53
2023-09-06T00:10:42.009Z,7.40
2023-09-06T00:13:14.129Z,6.95
2023-09-06T00:15:44.931Z,7.15
2023-09-06T00:18:15.266Z,8.13
2023-09-06T00:20:46.673Z,8.65
2023-09-06T00:23:18.855Z,8.15
2023-09-06T00:25:51.704Z,7.90
2023-09-06T00:28:25.432Z,8.23
2023-09-06T00:30:56.769Z,9.50
2023-09-06T00:33:32.014Z,8.65
2023-09-06T00:38:33.752Z,9.57
2023-09-06T00:41:06.625Z,10.57
2023-09-06T00:43:36.952Z,12.32
2023-09-06T00:46:09.796Z,10.45
2023-09-06T00:48:40.648Z,11.20
2023-09-06T00:51:11.575Z,11.13
2023-09-06T00:53:44.118Z,11.23
2023-09-06T00:56:18.665Z,11.43
2023-09-06T00:58:50.306Z,13.13
2023-09-06T01:01:20.676Z,13.85
2023-09-06T01:03:51.345Z,13.68
2023-09-06T01:06:25.783Z,14.35
2023-09-06T01:09:00.271Z,12.60
2023-09-06T01:11:38.588Z,14.60
2023-09-06T01:14:09.633Z,13.00
2023-09-06T01:16:44.610Z,15.55
2023-09-06T01:19:18.133Z,15.65
2023-09-06T01:21:57.026Z,14.02
2023-09-06T01:24:31.096Z,14.77
2023-09-06T01:27:01.586Z,13.75
2023-09-06T01:29:33.488Z,14.63
2023-09-06T01:32:05.180Z,15.60
2023-09-06T01:34:35.574Z,15.77
2023-09-06T01:37:06.052Z,15.38
2023-09-06T01:39:39.122Z,15.77
2023-09-06T01:42:09.509Z,16.10
2023-09-06T01:44:39.897Z,15.48
2023-09-06T01:47:10.264Z,14.52
2023-09-06T01:49:40.613Z,16.98
2023-09-06T01:52:12.313Z,17.65
2023-09-06T01:54:46.769Z,16.52
2023-09-06T01:57:17.405Z,14.90
2023-09-06T01:59:52.111Z,16.17
2023-09-06T02:02:22.408Z,17.80
2023-09-06T02:04:52.711Z,18.60
2023-09-06T02:07:23.040Z,16.30
2023-09-06T02:09:57.201Z,17.95
2023-09-06T02:12:27.605Z,17.73
2023-09-06T02:14:57.867Z,15.98
2023-09-06T02:17:28.752Z,17.00
2023-09-06T02:19:59.179Z,15.27
2023-09-06T02:22:29.486Z,16.48
2023-09-06T02:25:03.208Z,15.07
2023-09-06T02:27:34.304Z,16.30
2023-09-06T02:30:08.084Z,18.52
2023-09-06T02:32:39.134Z,15.85
2023-09-06T02:35:11.419Z,19.63
2023-09-06T02:37:41.698Z,20.15
2023-09-06T02:40:18.794Z,21.70
2023-09-06T02:42:52.836Z,20.25
2023-09-06T02:45:24.086Z,21.85
2023-09-06T02:47:55.648Z,19.95
2023-09-06T02:50:26.603Z,21.30
2023-09-06T02:52:57.958Z,20.20
2023-09-06T02:55:31.252Z,20.13
2023-09-06T02:58:01.584Z,18.38
2023-09-06T03:00:37.450Z,24.05
2023-09-06T03:03:09.411Z,21.25
2023-09-06T03:05:43.186Z,23.20
2023-09-06T03:08:14.770Z,24.38
2023-09-06T03:10:48.621Z,25.30
2023-09-06T03:13:21.684Z,22.77
2023-09-06T03:15:53.512Z,23.73
2023-09-06T03:18:24.119Z,24.60
2023-09-06T03:20:56.889Z,22.85
2023-09-06T03:23:28.165Z,21.33
2023-09-06T03:26:01.070Z,21.30
2023-09-06T03:28:31.717Z,23.85
2023-09-06T03:31:02.788Z,24.08
2023-09-06T03:33:33.657Z,21.65
2023-09-06T03:36:08.944Z,23.00
2023-09-06T03:38:40.592Z,25.20
2023-09-06T03:41:13.576Z,27.08
2023-09-06T03:43:44.214Z,26.50
2023-09-06T03:46:16.024Z,28.50
2023-09-06T03:48:47.162Z,24.85
2023-09-06T03:51:17.851Z,27.25
2023-09-06T03:53:49.136Z,27.17
2023-09-06T03:56:22.181Z,29.35
2023-09-06T03:58:54.656Z,29.38
2023-09-06T04:01:27.504Z,27.67
2023-09-06T04:04:01.976Z,28.15
2023-09-06T04:06:32.647Z,31.77
2023-09-06T04:09:03.574Z,28.85
2023-09-06T04:11:36.614Z,33.03
2023-09-06T04:14:07.285Z,31.92
2023-09-06T04:16:37.969Z,30.42
2023-09-06T04:19:09.992Z,34.17
2023-09-06T04:21:41.883Z,33.55
2023-09-06T04:24:12.527Z,30.33
2023-09-06T04:26:50.271Z,29.98
2023-09-06T04:29:21.152Z,28.75
2023-09-06T04:31:51.464Z,32.95
2023-09-06T04:34:22.151Z,34.35
2023-09-06T04:36:52.431Z,31.58
2023-09-06T04:39:22.701Z,31.30
2023-09-06T04:41:56.268Z,35.88
2023-09-06T04:44:26.539Z,36.67
2023-09-06T04:46:57.225Z,35.03
2023-09-06T04:49:27.575Z,32.38
2023-09-06T04:51:57.887Z,36.35
2023-09-06T04:54:28.654Z,37.15
2023-09-06T04:57:01.706Z,38.95
2023-09-06T04:59:34.832Z,35.33
2023-09-06T05:02:05.197Z,37.53
2023-09-06T05:04:36.484Z,43.85
2023-09-06T05:07:07.337Z,38.75
2023-09-06T05:09:38.465Z,42.17
2023-09-06T05:12:12.045Z,42.63
2023-09-06T05:14:42.364Z,38.22
2023-09-06T05:17:12.632Z,42.15
2023-09-06T05:19:42.877Z,39.17
2023-09-06T05:22:13.173Z,41.92
2023-09-06T05:24:43.473Z,42.33
2023-09-06T05:27:19.016Z,37.65
2023-09-06T05:29:51.137Z,35.78
2023-09-06T05:32:21.860Z,40.75
2023-09-06T05:34:52.107Z,36.97
2023-09-06T05:37:22.482Z,38.15
2023-09-06T05:39:52.804Z,38.75
2023-09-06T05:42:25.772Z,40.63
2023-09-06T05:44:57.499Z,37.78
2023-09-06T05:47:27.925Z,40.33
2023-09-06T05:49:59.380Z,38.05
2023-09-06T05:52:29.985Z,42.22
2023-09-06T05:55:00.260Z,40.22
2023-09-06T05:57:35.222Z,39.30
2023-09-06T06:00:06.055Z,38.58
2023-09-06T06:02:37.131Z,39.83
2023-09-06T06:05:08.146Z,34.60
2023-09-06T06:07:38.449Z,39.45
2023-09-06T06:10:12.159Z,41.72
2023-09-06T06:12:45.615Z,40.92
2023-09-06T06:15:17.063Z,37.20
2023-09-06T06:17:47.373Z,39.75
2023-09-06T06:20:22.908Z,35.53
2023-09-06T06:22:58.567Z,41.10
2023-09-06T06:25:29.030Z,41.00
2023-09-06T06:28:02.030Z,42.28
2023-09-06T06:30:32.390Z,46.38
2023-09-06T06:33:04.095Z,43.30
2023-09-06T06:35:35.611Z,48.55
2023-09-06T06:38:06.297Z,44.28
2023-09-06T06:40:40.008Z,44.03
2023-09-06T06:43:13.672Z,41.25
2023-09-06T06:45:50.974Z,43.47
2023-09-06T06:48:21.275Z,39.40
2023-09-06T06:50:51.901Z,39.90
2023-09-06T06:53:22.267Z,46.78
2023-09-06T06:55:56.696Z,44.53
2023-09-06T06:58:29.890Z,43.13
2023-09-06T07:01:00.292Z,39.88
2023-09-06T07:03:30.862Z,39.03
2023-09-06T07:06:01.326Z,40.70
2023-09-06T07:08:31.804Z,40.08
2023-09-06T07:11:04.874Z,39.22
2023-09-06T07:13:37.940Z,38.72
2023-09-06T07:16:08.651Z,36.53
2023-09-06T07:18:39.454Z,38.10
2023-09-06T07:21:09.813Z,35.90
2023-09-06T07:23:40.536Z,31.85
2023-09-06T07:26:12.570Z,33.38
2023-09-06T07:28:47.017Z,35.47
2023-09-06T07:31:19.472Z,37.42
2023-09-06T07:33:50.016Z,37.05
2023-09-06T07:36:20.717Z,36.72
2023-09-06T07:38:56.589Z,33.03
2023-09-06T07:41:27.429Z,39.30
2023-09-06T07:44:00.627Z,36.28
2023-09-06T07:46:32.379Z,35.78
2023-09-06T07:49:02.896Z,31.13
2023-09-06T07:51:33.529Z,35.38
2023-09-06T07:54:03.837Z,36.88
2023-09-06T07:56:34.129Z,32.95
2023-09-06T07:59:07.104Z,36.45
2023-09-06T08:01:37.591Z,33.08
2023-09-06T08:04:08.141Z,33.42
2023-09-06T08:06:38.550Z,33.38
2023-09-06T08:09:09.342Z,33.97
2023-09-06T08:11:39.688Z,29.75
2023-09-06T08:14:12.586Z,29.50
2023-09-06T08:16:42.896Z,28.70
2023-09-06T08:19:13.225Z,27.80
2023-09-06T08:21:44.558Z,24.15
2023-09-06T08:24:14.925Z,30.55
2023-09-06T08:26:45.256Z,30.83
2023-09-06T08:29:18.392Z,26.25
2023-09-06T08:31:48.747Z,29.75
2023-09-06T08:34:19.184Z,26.70
2023-09-06T08:36:49.455Z,25.77
2023-09-06T08:39:19.755Z,28.95
2023-09-06T08:41:53.336Z,26.70
2023-09-06T08:44:28.668Z,24.73
2023-09-06T08:47:04.925Z,26.08
2023-09-06T08:49:36.249Z,27.33
2023-09-06T08:52:07.829Z,23.98
2023-09-06T08:54:38.771Z,23.48
2023-09-06T08:57:09.425Z,22.80
2023-09-06T08:59:43.804Z,19.80
2023-09-06T09:02:16.219Z,18.23
2023-09-06T09:04:47.209Z,19.63
2023-09-06T09:07:18.359Z,22.85
2023-09-06T09:10:05.618Z,22.55
2023-09-06T09:12:37.205Z,19.50
2023-09-06T09:17:58.507Z,19.55
2023-09-06T09:20:31.104Z,21.83
2023-09-06T09:23:05.409Z,19.70
2023-09-06T09:25:37.330Z,21.17
2023-09-06T09:28:08.377Z,19.75
2023-09-06T09:30:42.718Z,17.83
2023-09-06T09:33:13.264Z,19.20
2023-09-06T09:35:45.857Z,15.63
2023-09-06T09:38:16.226Z,16.45
2023-09-06T09:40:53.380Z,15.25
2023-09-06T09:43:24.725Z,13.10
2023-09-06T09:45:57.687Z,16.08
2023-09-06T09:48:33.836Z,16.83
2023-09-06T09:51:06.211Z,15.88
2023-09-06T09:53:37.545Z,17.40
2023-09-06T09:56:11.660Z,16.27
2023-09-06T09:58:42.550Z,16.80
2023-09-06T10:01:16.508Z,16.23
2023-09-06T10:03:48.821Z,15.32
2023-09-06T10:06:21.453Z,15.45
2023-09-06T10:08:53.889Z,15.02
2023-09-06T10:11:25.531Z,14.85
2023-09-06T10:13:57.745Z,14.45
2023-09-06T10:16:31.412Z,18.95
2023-09-06T10:19:02.582Z,18.60
2023-09-06T10:21:35.161Z,17.95
2023-09-06T10:24:05.812Z,21.70
2023-09-06T10:26:38.854Z,19.73
2023-09-06T10:29:13.337Z,20.20
2023-09-06T10:31:55.275Z,19.45
2023-09-06T10:34:25.681Z,21.75
2023-09-06T10:36:58.983Z,21.10
2023-09-06T10:39:30.430Z,18.95
2023-09-06T10:42:22.625Z,18.83
2023-09-06T10:45:15.262Z,17.90
2023-09-06T10:47:48.363Z,16.35
2023-09-06T10:50:24.573Z,14.68
2023-09-06T10:52:57.415Z,16.52
2023-09-06T10:55:29.447Z,14.93
2023-09-06T10:58:10.477Z,14.43
2023-09-06T11:00:42.504Z,14.73
2023-09-06T11:03:23.563Z,14.73
2023-09-06T11:05:59.894Z,17.52
2023-09-06T11:08:31.866Z,14.93
2023-09-06T11:11:11.413Z,16.98
2023-09-06T11:13:44.882Z,19.45
2023-09-06T11:16:17.491Z,17.20
2023-09-06T11:18:52.600Z,16.95
2023-09-06T11:23:57.759Z,16.70
2023-09-06T11:26:28.582Z,16.70
2023-09-06T11:29:07.454Z,15.85
2023-09-06T11:31:37.834Z,14.00
2023-09-06T11:34:13.702Z,16.55
2023-09-06T11:36:45.068Z,16.83
2023-09-06T11:39:20.543Z,14.48
2023-09-06T11:41:53.124Z,14.10
2023-09-06T11:44:24.908Z,13.57
2023-09-06T11:46:56.081Z,13.05
2023-09-06T11:49:31.605Z,16.00
2023-09-06T11:52:06.400Z,14.55
2023-09-06T11:54:40.415Z,15.60
2023-09-06T11:57:12.231Z,18.48
2023-09-06T11:59:45.090Z,15.98
2023-09-06T12:02:16.384Z,14.52
2023-09-06T12:05:05.435Z,13.68
2023-09-06T12:07:36.342Z,13.52
2023-09-06T12:10:08.248Z,13.43
2023-09-06T12:12:44.550Z,12.05
2023-09-06T12:15:21.265Z,11.25
2023-09-06T12:17:51.980Z,12.50
2023-09-06T12:20:29.126Z,11.55
2023-09-06T12:23:02.097Z,11.18
2023-09-06T12:25:32.622Z,13.15
2023-09-06T12:28:02.961Z,12.38
2023-09-06T12:30:33.458Z,14.02
2023-09-06T12:33:04.888Z,13.52
2023-09-06T12:35:40.124Z,11.73
2023-09-06T12:38:10.612Z,14.40
2023-09-06T12:40:41.029Z,13.85
2023-09-06T12:43:11.306Z,12.38
2023-09-06T12:45:41.614Z,13.05
2023-09-06T12:48:12.004Z,12.02
2023-09-06T12:50:45.105Z,10.98
2023-09-06T12:53:15.573Z,12.50
2023-09-06T12:55:46.195Z,11.73
2023-09-06T12:58:16.870Z,10.93
2023-09-06T13:00:47.399Z,10.75
2023-09-06T13:03:18.657Z,11.90
2023-09-06T13:05:51.835Z,12.40
2023-09-06T13:08:22.321Z,12.10
2023-09-06T13:10:52.727Z,12.27
2023-09-06T13:13:23.026Z,12.88
2023-09-06T13:15:53.395Z,11.30
2023-09-06T13:18:23.837Z,12.70
2023-09-06T13:21:01.504Z,13.15
2023-09-06T13:23:32.019Z,13.73
2023-09-06T13:26:03.036Z,11.10
2023-09-06T13:28:35.173Z,10.90
2023-09-06T13:31:07.369Z,11.63
2023-09-06T13:33:38.182Z,11.15
2023-09-06T13:36:11.756Z,10.40
2023-09-06T13:38:42.083Z,8.40
2023-09-06T13:41:12.431Z,8.52
2023-09-06T13:43:42.731Z,8.27
2023-09-06T13:46:13.151Z,8.15
2023-09-06T13:48:44.225Z,8.48
2023-09-06T13:51:17.428Z,8.05
2023-09-06T13:53:48.296Z,8.15
2023-09-06T13:56:18.820Z,7.57
2023-09-06T13:58:50.435Z,7.90
2023-09-06T14:01:20.803Z,7.68
2023-09-06T14:03:51.175Z,7.70
2023-09-06T14:06:24.213Z,7.53
2023-09-06T14:08:54.813Z,9.15
2023-09-06T14:11:25.145Z,8.10
2023-09-06T14:13:55.504Z,7.82
2023-09-06T14:16:25.892Z,7.57
2023-09-06T14:18:56.244Z,8.45
2023-09-06T14:21:29.119Z,8.27
2023-09-06T14:23:59.456Z,7.88
2023-09-06T14:26:29.756Z,7.07
2023-09-06T14:29:00.462Z,7.85
2023-09-06T14:31:30.966Z,6.63
2023-09-06T14:34:03.050Z,7.28
2023-09-06T14:36:36.584Z,7.80
2023-09-06T14:39:09.510Z,7.32
2023-09-06T14:41:39.971Z,7.38
2023-09-06T14:44:10.367Z,8.60
2023-09-06T14:46:41.425Z,7.80
2023-09-06T14:49:11.746Z,7.30
2023-09-06T14:51:44.668Z,7.75
2023-09-06T14:54:14.936Z,8.23
2023-09-06T14:56:45.384Z,8.57
2023-09-06T14:59:15.653Z,7.65
2023-09-06T15:01:46.052Z,6.90
2023-09-06T15:04:16.987Z,7.95
2023-09-06T15:06:59.285Z,7.72
2023-09-06T15:09:30.575Z,8.10
2023-09-06T15:12:03.131Z,7.80
2023-09-06T15:14:33.916Z,7.63
2023-09-06T15:17:04.481Z,7.47
2023-09-06T15:19:34.876Z,7.55
2023-09-06T15:22:08.286Z,8.00
2023-09-06T15:24:38.600Z,8.45
2023-09-06T15:27:09.310Z,7.10
2023-09-06T15:29:44.112Z,8.48
2023-09-06T15:32:14.871Z,7.93
2023-09-06T15:34:45.139Z,8.10
2023-09-06T15:37:18.041Z,8.05
2023-09-06T15:39:48.328Z,7.60
2023-09-06T15:42:18.729Z,8.57
2023-09-06T15:44:49.086Z,7.70
2023-09-06T15:47:19.415Z,8.48
2023-09-06T15:49:52.031Z,7.18
2023-09-06T15:52:27.049Z,6.68
2023-09-06T15:54:58.004Z,6.80
2023-09-06T15:57:28.286Z,6.97
2023-09-06T15:59:59.576Z,6.65
2023-09-06T16:02:30.239Z,6.90
2023-09-06T16:05:00.665Z,6.78
2023-09-06T16:07:33.672Z,7.07
2023-09-06T16:10:04.547Z,6.80
2023-09-06T16:12:35.511Z,7.20
2023-09-06T16:15:06.856Z,8.40
2023-09-06T16:17:37.230Z,7.68
2023-09-06T16:20:08.840Z,7.25
2023-09-06T16:22:41.827Z,7.32
2023-09-06T16:25:13.476Z,8.02
2023-09-06T16:27:44.311Z,8.05
2023-09-06T16:30:15.498Z,7.47
2023-09-06T16:32:46.074Z,7.85
2023-09-06T16:35:16.471Z,7.65
2023-09-06T16:37:52.076Z,6.65
2023-09-06T16:40:25.193Z,7.47
2023-09-06T16:42:56.210Z,7.28
2023-09-06T16:45:26.644Z,7.40
2023-09-06T16:47:56.973Z,7.93
2023-09-06T16:50:27.920Z,7.70
2023-09-06T16:53:00.912Z,7.18
2023-09-06T16:55:31.535Z,7.90
2023-09-06T16:58:02.211Z,7.63
2023-09-06T17:00:33.941Z,7.45
2023-09-06T17:03:04.301Z,7.75
2023-09-06T17:05:35.492Z,7.20
2023-09-06T17:08:09.668Z,7.05
2023-09-06T17:10:39.963Z,7.73
2023-09-06T17:13:10.338Z,7.63
2023-09-06T17:15:40.880Z,7.80
2023-09-06T17:18:11.292Z,7.65
2023-09-06T17:20:41.847Z,7.82
2023-09-06T17:23:17.566Z,7.38
2023-09-06T17:25:50.823Z,7.32
2023-09-06T17:28:21.329Z,8.38
2023-09-06T17:30:52.858Z,8.38
2023-09-06T17:33:25.878Z,8.40
2023-09-06T17:35:57.014Z,8.75
2023-09-06T17:38:30.101Z,8.75
2023-09-06T17:41:00.534Z,8.13
2023-09-06T17:43:31.634Z,8.63
2023-09-06T17:46:04.520Z,8.93
2023-09-06T17:48:35.305Z,9.10
2023-09-06T17:51:10.320Z,9.10
2023-09-06T17:53:44.505Z,9.25
2023-09-06T17:56:17.756Z,9.60
2023-09-06T17:58:50.906Z,10.50
2023-09-06T18:01:21.893Z,9.55
2023-09-06T18:03:59.598Z,10.70
2023-09-06T18:06:32.054Z,10.30
2023-09-06T18:09:09.150Z,9.90
2023-09-06T18:11:40.181Z,10.50
2023-09-06T18:14:11.082Z,9.40
2023-09-06T18:16:43.768Z,9.57
2023-09-06T18:19:14.180Z,9.85
2023-09-06T18:21:44.799Z,8.65
2023-09-06T18:24:17.838Z,8.57
2023-09-06T18:26:58.082Z,9.60
2023-09-06T18:29:38.107Z,9.82
2023-09-06T18:32:09.812Z,10.30
2023-09-06T18:34:40.119Z,9.20
2023-09-06T18:37:10.723Z,9.82
2023-09-06T18:39:43.626Z,9.93
2023-09-06T18:42:13.871Z,9.20
2023-09-06T18:44:45.196Z,9.45
2023-09-06T18:47:15.483Z,8.70
2023-09-06T18:49:45.822Z,9.38
2023-09-06T18:52:16.114Z,9.40
2023-09-06T18:54:49.277Z,10.43
2023-09-06T18:57:19.573Z,10.88
2023-09-06T18:59:49.911Z,9.82
2023-09-06T19:02:22.874Z,9.82
2023-09-06T19:04:54.566Z,10.98
2023-09-06T19:07:24.990Z,10.50
2023-09-06T19:09:59.558Z,10.50
2023-09-06T19:12:30.011Z,9.95
2023-09-06T19:15:00.327Z,7.97
2023-09-06T19:17:31.669Z,9.88
2023-09-06T19:20:02.281Z,10.00
2023-09-06T19:22:32.714Z,9.88
2023-09-06T19:25:09.194Z,9.85
2023-09-06T19:27:40.280Z,10.30
2023-09-06T19:30:13.278Z,11.40
2023-09-06T19:32:43.928Z,10.48
2023-09-06T19:35:15.305Z,10.82
2023-09-06T19:37:45.897Z,10.43
2023-09-06T19:40:18.901Z,10.25
2023-09-06T19:42:52.938Z,10.38
2023-09-06T19:45:23.990Z,12.17
2023-09-06T19:47:54.368Z,10.20
2023-09-06T19:50:24.892Z,11.05
2023-09-06T19:52:55.239Z,10.95
2023-09-06T19:55:28.111Z,10.13
2023-09-06T19:57:58.432Z,10.60
2023-09-06T20:00:28.751Z,10.63
2023-09-06T20:02:59.379Z,11.40
2023-09-06T20:05:29.977Z,10.95
2023-09-06T20:08:00.411Z,12.73
2023-09-06T20:10:33.930Z,12.20
2023-09-06T20:13:04.190Z,11.75
2023-09-06T20:15:41.314Z,12.13
2023-09-06T20:18:12.045Z,12.07
2023-09-06T20:20:44.695Z,12.15
2023-09-06T20:23:15.266Z,12.50
2023-09-06T20:25:48.279Z,11.75
2023-09-06T20:28:18.542Z,12.07
2023-09-06T20:30:50.266Z,12.02
2023-09-06T20:33:22.969Z,11.43
2023-09-06T20:35:55.252Z,12.23
2023-09-06T20:38:25.558Z,12.18
2023-09-06T20:41:05.094Z,12.45
2023-09-06T20:43:37.565Z,12.70
2023-09-06T20:46:07.960Z,12.75
2023-09-06T20:48:41.664Z,11.60
2023-09-06T20:51:15.028Z,10.63
2023-09-06T20:53:45.555Z,11.07
2023-09-06T20:56:18.442Z,11.10
2023-09-06T20:58:48.827Z,11.75
2023-09-06T21:01:22.722Z,11.93
2023-09-06T21:03:53.276Z,12.05
2023-09-06T21:06:23.685Z,11.70
2023-09-06T21:08:54.660Z,11.18
2023-09-06T21:11:27.674Z,12.02
2023-09-06T21:13:57.968Z,11.75
2023-09-06T21:16:28.307Z,11.95
2023-09-06T21:18:58.655Z,11.45
2023-09-06T21:21:28.967Z,12.50
2023-09-06T21:23:59.276Z,11.90
2023-09-06T21:26:32.335Z,13.02
2023-09-06T21:29:09.158Z,12.48
2023-09-06T21:31:45.184Z,11.32
2023-09-06T21:34:15.683Z,11.55
2023-09-06T21:36:46.161Z,12.18
2023-09-06T21:39:16.551Z,11.10
2023-09-06T21:41:49.454Z,12.10
2023-09-06T21:44:19.703Z,11.60
2023-09-06T21:46:50.044Z,11.73
2023-09-06T21:49:20.290Z,12.30
2023-09-06T21:51:50.540Z,13.65
2023-09-06T21:54:20.785Z,12.95
2023-09-06T21:56:53.704Z,14.63
2023-09-06T21:59:23.990Z,14.98
2023-09-06T22:01:54.339Z,15.05
2023-09-06T22:04:24.853Z,13.23
2023-09-06T22:06:55.309Z,14.07
2023-09-06T22:09:26.035Z,15.07
2023-09-06T22:11:59.092Z,13.10
2023-09-06T22:14:29.350Z,14.90
2023-09-06T22:17:00.078Z,14.00
2023-09-06T22:19:31.403Z,13.40
2023-09-06T22:22:01.699Z,15.07
2023-09-06T22:24:31.959Z,15.75
2023-09-06T22:27:06.030Z,14.27
2023-09-06T22:29:36.308Z,14.18
2023-09-06T22:32:07.169Z,14.05
2023-09-06T22:34:37.816Z,13.13
2023-09-06T22:37:08.646Z,12.85
2023-09-06T22:39:38.956Z,13.70
2023-09-06T22:42:12.419Z,15.10
2023-09-06T22:44:43.348Z,13.50
2023-09-06T22:47:14.057Z,13.75
2023-09-06T22:49:45.155Z,14.77
2023-09-06T22:52:15.547Z,15.63
2023-09-06T22:54:45.940Z,14.88
2023-09-06T22:57:18.890Z,16.00
2023-09-06T22:59:49.173Z,15.52
2023-09-06T23:02:19.459Z,14.95
2023-09-06T23:04:52.143Z,15.35
2023-09-06T23:07:22.594Z,15.80
2023-09-06T23:09:53.017Z,14.30
2023-09-06T23:12:28.547Z,15.05
2023-09-06T23:15:00.960Z,16.30
2023-09-06T23:17:38.423Z,16.98
2023-09-06T23:20:18.249Z,16.63
2023-09-06T23:22:51.588Z,15.57
2023-09-06T23:25:23.236Z,18.73
2023-09-06T23:27:56.950Z,16.85
2023-09-06T23:30:31.266Z,18.80
2023-09-06T23:33:06.365Z,16.17
2023-09-06T23:38:08.721Z,15.00
2023-09-06T23:40:39.011Z,16.45
2023-09-06T23:43:12.136Z,16.98
2023-09-06T23:45:49.106Z,17.25
2023-09-06T23:48:19.714Z,17.65
2023-09-06T23:50:51.304Z,16.85
2023-09-06T23:53:23.254Z,15.77
2023-09-06T23:55:53.512Z,14.13
2023-09-06T23:58:26.591Z,15.52
